Missouri River (Missouri), Jefferson City (06910450)

StateMissouriLatestUnknown (61900 cfs)
RiverMissouri RiverRatingObservedEstimated
Updated2026-05-10 6:45 (51 minutes ago)Flood - The river is flooding. Obstacles can be treacherous or deadly. The river should be avoided at this stage for casual trips and definitely for the inexperienced. Trips should be attempted only with protective gear and equipment.Flood(none)(none)
Discharge61900 cfs (median: 92600 cfs)High - The river is high and potentially dangerous, especially for the young and / or inexperienced. Normal stream obstacles are sometimes difficult to navigate. Extended distances can be attempted, but canoe travel may not be advisable.High(none)(none)
Height8.31 feetGood - Conditions are ideal for a canoe or kayak. Boats typically will drag on fewer than one-quarter of riffles, if at all, and portages are unnecessary or rare. Normal float lengths can be attempted without a problem.Good(none)(none)
TrendFalling (falling over 24 hours)Low - River is low but can still be floated. Some riffles are okay but most come with significant dragging and might need a portage. Float lengths should be reduced to accommodate low flow, dragging, and portages.Low(none)(none)
USGSExternal icon USGS Site (External icon Duck Duck Go Maps)Poor - River is too low to float comfortably. Most or all riffles will drag or must be portaged and some obstacles (such as slick shelf rock) cause undue problems. Avoid the river at this stage for casual paddling trips.Poor(none)(none)

Trending Data

Plot Image

Trips for Missouri River (Missouri), Jefferson City (06910450)

DateStartEndDistanceConditionDischargeHeightFishingDetails

A total of 0 rows are displayed.

Condition Descriptions

Fishing Conditions

Fish Species

Notes

Classic Trip List

The classic River Trips application is still available for use. It is updated with the new system using a data retrofit. It is no longer maintained. The original River Trips application is no longer updated (as of 1 Dec 2016) but can be checked for errors or for the condition of the data before it was converted to the new system.

Gauge Data Table

ObservationHeightDischargeMaximum
Discharge
Minimum
Discharge
Mean
Discharge
P05P10P20P25P50
(Median)
P75P80P90P95
2026-05-10 06:45 8.31 61900 246000 (2019) 40300 (2023) 116000 42900 69000 76600 92600 163000 192000 242000
2026-05-10 05:45 8.32 62000 246000 (2019) 40300 (2023) 116000 42900 69000 76600 92600 163000 192000 242000
2026-05-10 04:45 8.36 62200 246000 (2019) 40300 (2023) 116000 42900 69000 76600 92600 163000 192000 242000
2026-05-10 03:45 8.39 62400 246000 (2019) 40300 (2023) 116000 42900 69000 76600 92600 163000 192000 242000
2026-05-10 02:45 8.42 62600 246000 (2019) 40300 (2023) 116000 42900 69000 76600 92600 163000 192000 242000
2026-05-10 01:45 8.45 62800 246000 (2019) 40300 (2023) 116000 42900 69000 76600 92600 163000 192000 242000
2026-05-10 00:45 8.49 63100 246000 (2019) 40300 (2023) 116000 42900 69000 76600 92600 163000 192000 242000
2026-05-09 23:45 8.53 63300 246000 (2019) 40300 (2023) 116000 42900 69000 76600 92600 163000 192000 242000
2026-05-09 22:45 8.57 63600 215000 (2019) 39600 (2023) 112000 41900 66300 75800 96400 151000 184000 213000
2026-05-09 21:45 8.59 63700 215000 (2019) 39600 (2023) 112000 41900 66300 75800 96400 151000 184000 213000
2026-05-09 20:45 8.61 63800 215000 (2019) 39600 (2023) 112000 41900 66300 75800 96400 151000 184000 213000
2026-05-09 19:45 8.65 64100 215000 (2019) 39600 (2023) 112000 41900 66300 75800 96400 151000 184000 213000
2026-05-09 18:45 8.69 64300 215000 (2019) 39600 (2023) 112000 41900 66300 75800 96400 151000 184000 213000
2026-05-09 17:45 8.74 64600 215000 (2019) 39600 (2023) 112000 41900 66300 75800 96400 151000 184000 213000
2026-05-09 16:45 8.76 64800 215000 (2019) 39600 (2023) 112000 41900 66300 75800 96400 151000 184000 213000
2026-05-09 15:45 8.79 64900 215000 (2019) 39600 (2023) 112000 41900 66300 75800 96400 151000 184000 213000
2026-05-09 14:45 8.82 65100 215000 (2019) 39600 (2023) 112000 41900 66300 75800 96400 151000 184000 213000
2026-05-09 13:45 8.84 65300 215000 (2019) 39600 (2023) 112000 41900 66300 75800 96400 151000 184000 213000
2026-05-09 12:45 8.83 65200 215000 (2019) 39600 (2023) 112000 41900 66300 75800 96400 151000 184000 213000
2026-05-09 11:45 8.85 65300 215000 (2019) 39600 (2023) 112000 41900 66300 75800 96400 151000 184000 213000
2026-05-09 10:45 8.88 65500 215000 (2019) 39600 (2023) 112000 41900 66300 75800 96400 151000 184000 213000
2026-05-09 09:45 8.88 65500 215000 (2019) 39600 (2023) 112000 41900 66300 75800 96400 151000 184000 213000
2026-05-09 08:45 8.89 65600 215000 (2019) 39600 (2023) 112000 41900 66300 75800 96400 151000 184000 213000
2026-05-09 07:45 8.90 65600 215000 (2019) 39600 (2023) 112000 41900 66300 75800 96400 151000 184000 213000
2026-05-09 06:45 8.88 65500 215000 (2019) 39600 (2023) 112000 41900 66300 75800 96400 151000 184000 213000
2026-05-09 05:45 8.91 65700 215000 (2019) 39600 (2023) 112000 41900 66300 75800 96400 151000 184000 213000
2026-05-09 04:45 8.92 65800 215000 (2019) 39600 (2023) 112000 41900 66300 75800 96400 151000 184000 213000
2026-05-09 03:45 8.94 65900 215000 (2019) 39600 (2023) 112000 41900 66300 75800 96400 151000 184000 213000
2026-05-09 02:45 8.97 66100 215000 (2019) 39600 (2023) 112000 41900 66300 75800 96400 151000 184000 213000
2026-05-09 01:45 9.00 66300 215000 (2019) 39600 (2023) 112000 41900 66300 75800 96400 151000 184000 213000
2026-05-09 00:45 9.03 66500 215000 (2019) 39600 (2023) 112000 41900 66300 75800 96400 151000 184000 213000
2026-05-08 23:45 9.06 66700 215000 (2019) 39600 (2023) 112000 41900 66300 75800 96400 151000 184000 213000
2026-05-08 22:45 9.09 66900 191000 (2019) 39500 (2023) 110000 41700 63700 69800 106000 142000 165000 189000
2026-05-08 21:45 9.13 67100 191000 (2019) 39500 (2023) 110000 41700 63700 69800 106000 142000 165000 189000
2026-05-08 20:45 9.15 67300 191000 (2019) 39500 (2023) 110000 41700 63700 69800 106000 142000 165000 189000
2026-05-08 19:45 9.15 67300 191000 (2019) 39500 (2023) 110000 41700 63700 69800 106000 142000 165000 189000
2026-05-08 18:45 9.17 67400 191000 (2019) 39500 (2023) 110000 41700 63700 69800 106000 142000 165000 189000
2026-05-08 17:45 9.20 67600 191000 (2019) 39500 (2023) 110000 41700 63700 69800 106000 142000 165000 189000
2026-05-08 16:45 9.23 67800 191000 (2019) 39500 (2023) 110000 41700 63700 69800 106000 142000 165000 189000
2026-05-08 15:45 9.25 67900 191000 (2019) 39500 (2023) 110000 41700 63700 69800 106000 142000 165000 189000
2026-05-08 14:45 9.28 68100 191000 (2019) 39500 (2023) 110000 41700 63700 69800 106000 142000 165000 189000
2026-05-08 13:45 9.32 68400 191000 (2019) 39500 (2023) 110000 41700 63700 69800 106000 142000 165000 189000
2026-05-08 12:45 9.32 68400 191000 (2019) 39500 (2023) 110000 41700 63700 69800 106000 142000 165000 189000
2026-05-08 11:45 9.36 68700 191000 (2019) 39500 (2023) 110000 41700 63700 69800 106000 142000 165000 189000
2026-05-08 10:45 9.38 68800 191000 (2019) 39500 (2023) 110000 41700 63700 69800 106000 142000 165000 189000
2026-05-08 09:45 9.43 69100 191000 (2019) 39500 (2023) 110000 41700 63700 69800 106000 142000 165000 189000
2026-05-08 08:45 9.41 69000 191000 (2019) 39500 (2023) 110000 41700 63700 69800 106000 142000 165000 189000
2026-05-08 07:45 9.45 69300 191000 (2019) 39500 (2023) 110000 41700 63700 69800 106000 142000 165000 189000
2026-05-08 06:45 9.45 69300 191000 (2019) 39500 (2023) 110000 41700 63700 69800 106000 142000 165000 189000
2026-05-08 05:45 9.51 69700 191000 (2019) 39500 (2023) 110000 41700 63700 69800 106000 142000 165000 189000
2026-05-08 04:45 9.52 69700 191000 (2019) 39500 (2023) 110000 41700 63700 69800 106000 142000 165000 189000
2026-05-08 03:45 9.53 69800 191000 (2019) 39500 (2023) 110000 41700 63700 69800 106000 142000 165000 189000
2026-05-08 02:45 9.56 70000 191000 (2019) 39500 (2023) 110000 41700 63700 69800 106000 142000 165000 189000
2026-05-08 01:45 9.59 70200 191000 (2019) 39500 (2023) 110000 41700 63700 69800 106000 142000 165000 189000
2026-05-08 00:45 9.60 70300 191000 (2019) 39500 (2023) 110000 41700 63700 69800 106000 142000 165000 189000
2026-05-07 23:45 9.62 70400 191000 (2019) 39500 (2023) 110000 41700 63700 69800 106000 142000 165000 189000
2026-05-07 22:45 9.63 70500 196000 (2019) 40100 (2023) 113000 41600 56400 60500 114000 150000 169000 194000
2026-05-07 21:45 9.65 70600 196000 (2019) 40100 (2023) 113000 41600 56400 60500 114000 150000 169000 194000
2026-05-07 20:45 9.67 70700 196000 (2019) 40100 (2023) 113000 41600 56400 60500 114000 150000 169000 194000
2026-05-07 19:45 9.65 70600 196000 (2019) 40100 (2023) 113000 41600 56400 60500 114000 150000 169000 194000
2026-05-07 18:45 9.67 70700 196000 (2019) 40100 (2023) 113000 41600 56400 60500 114000 150000 169000 194000
2026-05-07 17:45 9.68 70800 196000 (2019) 40100 (2023) 113000 41600 56400 60500 114000 150000 169000 194000
2026-05-07 16:45 9.66 70700 196000 (2019) 40100 (2023) 113000 41600 56400 60500 114000 150000 169000 194000
2026-05-07 15:45 9.67 70700 196000 (2019) 40100 (2023) 113000 41600 56400 60500 114000 150000 169000 194000
2026-05-07 14:45 9.67 70700 196000 (2019) 40100 (2023) 113000 41600 56400 60500 114000 150000 169000 194000
2026-05-07 13:45 9.68 70800 196000 (2019) 40100 (2023) 113000 41600 56400 60500 114000 150000 169000 194000
2026-05-07 12:45 9.64 70500 196000 (2019) 40100 (2023) 113000 41600 56400 60500 114000 150000 169000 194000
2026-05-07 11:45 9.68 70800 196000 (2019) 40100 (2023) 113000 41600 56400 60500 114000 150000 169000 194000
2026-05-07 10:45 9.67 70700 196000 (2019) 40100 (2023) 113000 41600 56400 60500 114000 150000 169000 194000
2026-05-07 09:45 9.65 70600 196000 (2019) 40100 (2023) 113000 41600 56400 60500 114000 150000 169000 194000
2026-05-07 08:45 9.67 70700 196000 (2019) 40100 (2023) 113000 41600 56400 60500 114000 150000 169000 194000
2026-05-07 07:45 9.64 70500 196000 (2019) 40100 (2023) 113000 41600 56400 60500 114000 150000 169000 194000
2026-05-07 06:45 9.62 70400 196000 (2019) 40100 (2023) 113000 41600 56400 60500 114000 150000 169000 194000
2026-05-07 05:45 9.63 70500 196000 (2019) 40100 (2023) 113000 41600 56400 60500 114000 150000 169000 194000
2026-05-07 04:45 9.62 70400 196000 (2019) 40100 (2023) 113000 41600 56400 60500 114000 150000 169000 194000
2026-05-07 03:45 9.61 70300 196000 (2019) 40100 (2023) 113000 41600 56400 60500 114000 150000 169000 194000
2026-05-07 02:45 9.59 70200 196000 (2019) 40100 (2023) 113000 41600 56400 60500 114000 150000 169000 194000
2026-05-07 01:45 9.59 70200 196000 (2019) 40100 (2023) 113000 41600 56400 60500 114000 150000 169000 194000
2026-05-07 00:45 9.57 70100 196000 (2019) 40100 (2023) 113000 41600 56400 60500 114000 150000 169000 194000
2026-05-06 23:45 9.58 70100 196000 (2019) 40100 (2023) 113000 41600 56400 60500 114000 150000 169000 194000
2026-05-06 22:45 9.55 69900 222000 (2019) 40700 (2023) 121000 41900 54200 59200 117000 170000 180000 218000
2026-05-06 21:45 9.57 70100 222000 (2019) 40700 (2023) 121000 41900 54200 59200 117000 170000 180000 218000
2026-05-06 20:45 9.56 70000 222000 (2019) 40700 (2023) 121000 41900 54200 59200 117000 170000 180000 218000
2026-05-06 19:45 9.53 69800 222000 (2019) 40700 (2023) 121000 41900 54200 59200 117000 170000 180000 218000
2026-05-06 18:45 9.57 70100 222000 (2019) 40700 (2023) 121000 41900 54200 59200 117000 170000 180000 218000
2026-05-06 17:45 9.59 70200 222000 (2019) 40700 (2023) 121000 41900 54200 59200 117000 170000 180000 218000
2026-05-06 16:45 9.57 70100 222000 (2019) 40700 (2023) 121000 41900 54200 59200 117000 170000 180000 218000
2026-05-06 15:45 9.58 70100 222000 (2019) 40700 (2023) 121000 41900 54200 59200 117000 170000 180000 218000
2026-05-06 14:45 9.59 70200 222000 (2019) 40700 (2023) 121000 41900 54200 59200 117000 170000 180000 218000
2026-05-06 13:45 9.56 70000 222000 (2019) 40700 (2023) 121000 41900 54200 59200 117000 170000 180000 218000
2026-05-06 12:45 9.58 70100 222000 (2019) 40700 (2023) 121000 41900 54200 59200 117000 170000 180000 218000
2026-05-06 11:45 9.56 70000 222000 (2019) 40700 (2023) 121000 41900 54200 59200 117000 170000 180000 218000
2026-05-06 10:45 9.57 70100 222000 (2019) 40700 (2023) 121000 41900 54200 59200 117000 170000 180000 218000
2026-05-06 09:45 9.54 69900 222000 (2019) 40700 (2023) 121000 41900 54200 59200 117000 170000 180000 218000
2026-05-06 08:45 9.56 70000 222000 (2019) 40700 (2023) 121000 41900 54200 59200 117000 170000 180000 218000
2026-05-06 07:45 9.58 70100 222000 (2019) 40700 (2023) 121000 41900 54200 59200 117000 170000 180000 218000
2026-05-06 06:45 9.52 69700 222000 (2019) 40700 (2023) 121000 41900 54200 59200 117000 170000 180000 218000
2026-05-06 05:45 9.53 69800 222000 (2019) 40700 (2023) 121000 41900 54200 59200 117000 170000 180000 218000
2026-05-06 04:45 9.53 69800 222000 (2019) 40700 (2023) 121000 41900 54200 59200 117000 170000 180000 218000
2026-05-06 03:45 9.50 69600 222000 (2019) 40700 (2023) 121000 41900 54200 59200 117000 170000 180000 218000
2026-05-06 02:45 9.47 69400 222000 (2019) 40700 (2023) 121000 41900 54200 59200 117000 170000 180000 218000
2026-05-06 01:45 9.47 69400 222000 (2019) 40700 (2023) 121000 41900 54200 59200 117000 170000 180000 218000
2026-05-06 00:45 9.46 69300 222000 (2019) 40700 (2023) 121000 41900 54200 59200 117000 170000 180000 218000
2026-05-05 23:45 9.45 69300 222000 (2019) 40700 (2023) 121000 41900 54200 59200 117000 170000 180000 218000
2026-05-05 22:45 9.45 69300 262000 (2019) 41000 (2023) 133000 42200 54700 58600 118000 202000 220000 259000
2026-05-05 21:45 9.45 69300 262000 (2019) 41000 (2023) 133000 42200 54700 58600 118000 202000 220000 259000
2026-05-05 20:45 9.44 69200 262000 (2019) 41000 (2023) 133000 42200 54700 58600 118000 202000 220000 259000
2026-05-05 19:45 9.44 69200 262000 (2019) 41000 (2023) 133000 42200 54700 58600 118000 202000 220000 259000
2026-05-05 18:45 9.45 69300 262000 (2019) 41000 (2023) 133000 42200 54700 58600 118000 202000 220000 259000
2026-05-05 17:45 9.44 69200 262000 (2019) 41000 (2023) 133000 42200 54700 58600 118000 202000 220000 259000
2026-05-05 16:45 9.44 69200 262000 (2019) 41000 (2023) 133000 42200 54700 58600 118000 202000 220000 259000
2026-05-05 15:45 9.46 69300 262000 (2019) 41000 (2023) 133000 42200 54700 58600 118000 202000 220000 259000
2026-05-05 14:45 9.45 69300 262000 (2019) 41000 (2023) 133000 42200 54700 58600 118000 202000 220000 259000
2026-05-05 13:45 9.42 69100 262000 (2019) 41000 (2023) 133000 42200 54700 58600 118000 202000 220000 259000
2026-05-05 12:45 9.48 69500 262000 (2019) 41000 (2023) 133000 42200 54700 58600 118000 202000 220000 259000
2026-05-05 11:45 9.47 69400 262000 (2019) 41000 (2023) 133000 42200 54700 58600 118000 202000 220000 259000
2026-05-05 10:45 9.47 69400 262000 (2019) 41000 (2023) 133000 42200 54700 58600 118000 202000 220000 259000
2026-05-05 09:45 9.51 69700 262000 (2019) 41000 (2023) 133000 42200 54700 58600 118000 202000 220000 259000
2026-05-05 08:45 9.57 70100 262000 (2019) 41000 (2023) 133000 42200 54700 58600 118000 202000 220000 259000
2026-05-05 07:45 9.59 70200 262000 (2019) 41000 (2023) 133000 42200 54700 58600 118000 202000 220000 259000
2026-05-05 06:45 9.58 70100 262000 (2019) 41000 (2023) 133000 42200 54700 58600 118000 202000 220000 259000
2026-05-05 05:45 9.60 70300 262000 (2019) 41000 (2023) 133000 42200 54700 58600 118000 202000 220000 259000
2026-05-05 04:45 9.62 70400 262000 (2019) 41000 (2023) 133000 42200 54700 58600 118000 202000 220000 259000
2026-05-05 03:45 9.63 70500 262000 (2019) 41000 (2023) 133000 42200 54700 58600 118000 202000 220000 259000
2026-05-05 02:45 9.64 70500 262000 (2019) 41000 (2023) 133000 42200 54700 58600 118000 202000 220000 259000
2026-05-05 01:45 9.67 70700 262000 (2019) 41000 (2023) 133000 42200 54700 58600 118000 202000 220000 259000
2026-05-05 00:45 9.69 70900 262000 (2019) 41000 (2023) 133000 42200 54700 58600 118000 202000 220000 259000
2026-05-04 23:45 9.72 71100 262000 (2019) 41000 (2023) 133000 42200 54700 58600 118000 202000 220000 259000
2026-05-04 22:45 9.75 71300 284000 (2019) 41500 (2023) 137000 42700 55200 59500 103000 207000 254000 283000
2026-05-04 21:45 9.78 71500 284000 (2019) 41500 (2023) 137000 42700 55200 59500 103000 207000 254000 283000
2026-05-04 20:45 9.81 71700 284000 (2019) 41500 (2023) 137000 42700 55200 59500 103000 207000 254000 283000
2026-05-04 19:45 9.84 71900 284000 (2019) 41500 (2023) 137000 42700 55200 59500 103000 207000 254000 283000
2026-05-04 18:45 9.87 72100 284000 (2019) 41500 (2023) 137000 42700 55200 59500 103000 207000 254000 283000
2026-05-04 17:45 9.90 72300 284000 (2019) 41500 (2023) 137000 42700 55200 59500 103000 207000 254000 283000
2026-05-04 16:45 9.92 72500 284000 (2019) 41500 (2023) 137000 42700 55200 59500 103000 207000 254000 283000
2026-05-04 15:45 9.98 72900 284000 (2019) 41500 (2023) 137000 42700 55200 59500 103000 207000 254000 283000
2026-05-04 14:45 9.99 73000 284000 (2019) 41500 (2023) 137000 42700 55200 59500 103000 207000 254000 283000
2026-05-04 13:45 10.07 73500 284000 (2019) 41500 (2023) 137000 42700 55200 59500 103000 207000 254000 283000
2026-05-04 12:45 10.10 73700 284000 (2019) 41500 (2023) 137000 42700 55200 59500 103000 207000 254000 283000
2026-05-04 11:45 10.12 73900 284000 (2019) 41500 (2023) 137000 42700 55200 59500 103000 207000 254000 283000
2026-05-04 10:45 10.20 74400 284000 (2019) 41500 (2023) 137000 42700 55200 59500 103000 207000 254000 283000
2026-05-04 09:45 10.21 74500 284000 (2019) 41500 (2023) 137000 42700 55200 59500 103000 207000 254000 283000
2026-05-04 08:45 10.28 75000 284000 (2019) 41500 (2023) 137000 42700 55200 59500 103000 207000 254000 283000
2026-05-04 07:45 10.28 75000 284000 (2019) 41500 (2023) 137000 42700 55200 59500 103000 207000 254000 283000
2026-05-04 06:45 10.38 75700 284000 (2019) 41500 (2023) 137000 42700 55200 59500 103000 207000 254000 283000
2026-05-04 05:45 10.46 76300 284000 (2019) 41500 (2023) 137000 42700 55200 59500 103000 207000 254000 283000
2026-05-04 04:45 10.51 76700 284000 (2019) 41500 (2023) 137000 42700 55200 59500 103000 207000 254000 283000
2026-05-04 03:45 10.57 77100 284000 (2019) 41500 (2023) 137000 42700 55200 59500 103000 207000 254000 283000
2026-05-04 02:45 10.64 77600 284000 (2019) 41500 (2023) 137000 42700 55200 59500 103000 207000 254000 283000
2026-05-04 01:45 10.71 78100 284000 (2019) 41500 (2023) 137000 42700 55200 59500 103000 207000 254000 283000
2026-05-04 00:45 10.78 78700 284000 (2019) 41500 (2023) 137000 42700 55200 59500 103000 207000 254000 283000
2026-05-03 23:45 10.83 79000 284000 (2019) 41500 (2023) 137000 42700 55200 59500 103000 207000 254000 283000
2026-05-03 22:45 10.91 79600 289000 (2019) 42400 (2023) 135000 43600 56100 61600 101000 201000 245000 286000
2026-05-03 21:45 10.99 80200 289000 (2019) 42400 (2023) 135000 43600 56100 61600 101000 201000 245000 286000
2026-05-03 20:45 11.07 80800 289000 (2019) 42400 (2023) 135000 43600 56100 61600 101000 201000 245000 286000
2026-05-03 19:45 11.13 81300 289000 (2019) 42400 (2023) 135000 43600 56100 61600 101000 201000 245000 286000
2026-05-03 18:45 11.21 81900 289000 (2019) 42400 (2023) 135000 43600 56100 61600 101000 201000 245000 286000
2026-05-03 17:45 11.28 82400 289000 (2019) 42400 (2023) 135000 43600 56100 61600 101000 201000 245000 286000
2026-05-03 16:45 11.36 83100 289000 (2019) 42400 (2023) 135000 43600 56100 61600 101000 201000 245000 286000
2026-05-03 15:45 11.43 83600 289000 (2019) 42400 (2023) 135000 43600 56100 61600 101000 201000 245000 286000
2026-05-03 14:45 11.50 84100 289000 (2019) 42400 (2023) 135000 43600 56100 61600 101000 201000 245000 286000
2026-05-03 13:45 11.59 84900 289000 (2019) 42400 (2023) 135000 43600 56100 61600 101000 201000 245000 286000
2026-05-03 12:45 11.66 85400 289000 (2019) 42400 (2023) 135000 43600 56100 61600 101000 201000 245000 286000
2026-05-03 11:45 11.73 86000 289000 (2019) 42400 (2023) 135000 43600 56100 61600 101000 201000 245000 286000
2026-05-03 10:45 11.82 86700 289000 (2019) 42400 (2023) 135000 43600 56100 61600 101000 201000 245000 286000
2026-05-03 09:45 11.90 87300 289000 (2019) 42400 (2023) 135000 43600 56100 61600 101000 201000 245000 286000
2026-05-03 08:45 11.98 88000 289000 (2019) 42400 (2023) 135000 43600 56100 61600 101000 201000 245000 286000
2026-05-03 07:45 12.06 88600 289000 (2019) 42400 (2023) 135000 43600 56100 61600 101000 201000 245000 286000
2026-05-03 06:45 12.14 89300 289000 (2019) 42400 (2023) 135000 43600 56100 61600 101000 201000 245000 286000
2026-05-03 05:45 12.21 89900 289000 (2019) 42400 (2023) 135000 43600 56100 61600 101000 201000 245000 286000
2026-05-03 04:45 12.28 90400 289000 (2019) 42400 (2023) 135000 43600 56100 61600 101000 201000 245000 286000
2026-05-03 03:45 12.37 91200 289000 (2019) 42400 (2023) 135000 43600 56100 61600 101000 201000 245000 286000
2026-05-03 02:45 12.44 91800 289000 (2019) 42400 (2023) 135000 43600 56100 61600 101000 201000 245000 286000
2026-05-03 01:45 12.53 92500 289000 (2019) 42400 (2023) 135000 43600 56100 61600 101000 201000 245000 286000
2026-05-03 00:45 12.60 93100 289000 (2019) 42400 (2023) 135000 43600 56100 61600 101000 201000 245000 286000
2026-05-02 23:45 12.67 93700 289000 (2019) 42400 (2023) 135000 43600 56100 61600 101000 201000 245000 286000

A total of 176 rows are displayed for years 2015 through 2024.